LIMC/MXP METAR and TAF weather

Enter ICAO airport designator
Station Type Date Time Source
LIMC METAR 2020/06/01 15:20 UTC NOAA

LIMC 011520Z VRB04KT CAVOK 25/12 Q1016 NOSIG


Station Type Date Time Source
LIMC Decoded METAR 2020/06/01 15:20 UTC NOAA

Milano / Malpensa, Italy (LIMC) 45-37N 008-44E 211M
Jun 01, 2020 - 11:20 AM EDT / 2020.06.01 1520 UTC
Wind: Variable at 5 MPH (4 KT):0
Visibility: greater than 7 mile(s):0
Temperature: 77 F (25 C)
Dew Point: 53 F (12 C)
Relative Humidity: 44%
Pressure (altimeter): 30.00 in. Hg (1016 hPa)
ob: LIMC 011520Z VRB04KT CAVOK 25/12 Q1016 NOSIG
cycle: 15

Station Type Date Time Source
LIMC TAF 2020/06/01 12:23 UTC NOAA

TAF LIMC 011100Z 0112/0218 VRB05KT 9999 SCT040 PROB30
TEMPO 0116/0120 TSRA

Example: see airport list